KHVR/HVR METAR and TAF weather

Enter ICAO airport designator
Station Type Date Time Source
KHVR METAR 2020/03/29 14:53 UTC NOAA

KHVR 291453Z AUTO 22011KT 10SM CLR 06/M02 A2982 RMK AO2 SLP112 T00611017 50002


Station Type Date Time Source
KHVR Decoded METAR 2020/03/29 14:53 UTC NOAA

HAVRE CITY-COUNTY AIRPORT, MT, United States (KHVR) 48-33N 109-46W 787M
Mar 29, 2020 - 10:53 AM EDT / 2020.03.29 1453 UTC
Wind: from the SW (220 degrees) at 13 MPH (11 KT):0
Visibility: 10 mile(s):0
Sky conditions: clear
Temperature: 43.0 F (6.1 C)
Dew Point: 28.9 F (-1.7 C)
Relative Humidity: 57%
Pressure (altimeter): 29.82 in. Hg (1009 hPa)
Pressure tendency: 0.01 inches (0.2 hPa) higher than three hours ago
ob: KHVR 291453Z AUTO 22011KT 10SM CLR 06/M02 A2982 RMK AO2 SLP112 T00611017 50002
cycle: 15

Station Type Date Time Source
KHVR TAF 2020/03/29 12:22 UTC NOAA

TAF KHVR 291120Z 2912/3012 22009KT P6SM FEW120
FM291700 23014G22KT P6SM FEW120
FM300200 19011KT P6SM FEW120

Example: see airport list